Time;durP1;ratioP1;P1;durP2;ratioP2;P2;SDS_P1;SDS_P2;PMS_P1;PMS_P2;Temp;Humidity;BMP_temperature;BMP_pressure;BME280_temperature;BME280_humidity;BME280_pressure;Samples;Min_cycle;Max_cycle;Signal;HPM_P1;HPM_P2
2022/03/01 00:02:08;;;;;;;;;78.25;59.25;6.10;91.80;;;;;;4916195;29;8782;-75
2022/03/01 00:04:34;;;;;;;;;64.00;52.25;6.00;92.90;;;;;;4915509;29;8847;-73
2022/03/01 00:07:00;;;;;;;;;62.00;50.00;5.90;93.00;;;;;;4915936;29;8792;-74
2022/03/01 00:09:26;;;;;;;;;63.25;52.25;5.80;96.20;;;;;;4916670;29;8782;-75
2022/03/01 00:11:52;;;;;;;;;66.75;53.00;5.80;99.90;;;;;;4916633;29;9366;-74
2022/03/01 00:14:17;;;;;;;;;61.50;50.00;5.80;99.90;;;;;;4892418;29;8796;-74
2022/03/01 00:16:43;;;;;;;;;68.75;55.50;5.90;99.90;;;;;;4920618;29;8794;-73
2022/03/01 00:19:09;;;;;;;;;58.75;45.50;5.90;99.90;;;;;;4920480;29;8839;-73
2022/03/01 00:21:35;;;;;;;;;67.25;55.75;5.90;99.90;;;;;;4920377;29;8914;-74
2022/03/01 00:24:01;;;;;;;;;66.00;50.25;6.50;94.80;;;;;;4917816;29;8911;-74
2022/03/01 00:26:27;;;;;;;;;66.75;51.75;6.80;89.20;;;;;;4920341;29;8758;-74
2022/03/01 00:28:52;;;;;;;;;67.00;51.00;7.50;80.60;;;;;;4920271;29;8798;-74
2022/03/01 00:31:18;;;;;;;;;74.00;56.50;7.90;76.40;;;;;;4895969;29;8818;-73
2022/03/01 00:33:44;;;;;;;;;77.25;58.25;8.30;73.20;;;;;;4927328;29;8806;-75
2022/03/01 00:36:10;;;;;;;;;71.50;55.75;8.60;70.30;;;;;;4919854;29;8895;-74
2022/03/01 00:38:36;;;;;;;;;72.50;56.25;8.70;68.90;;;;;;4920011;29;8800;-73
2022/03/01 00:41:02;;;;;;;;;75.75;61.50;8.70;68.40;;;;;;4920261;29;8775;-73
2022/03/01 00:43:28;;;;;;;;;74.00;59.00;8.80;68.10;;;;;;4920020;29;8778;-74
2022/03/01 00:45:54;;;;;;;;;78.00;58.50;8.40;69.10;;;;;;4920368;29;8791;-73
2022/03/01 00:48:21;;;;;;;;;75.50;58.00;8.40;71.10;;;;;;4917032;29;8805;-75
2022/03/01 00:50:48;;;;;;;;;84.25;63.00;8.30;70.80;;;;;;4919519;29;8801;-75
2022/03/01 00:53:14;;;;;;;;;79.25;61.50;8.60;69.30;;;;;;4920148;29;9938;-75
2022/03/01 00:55:40;;;;;;;;;71.25;57.00;9.00;67.60;;;;;;4919987;29;8810;-75
2022/03/01 00:58:06;;;;;;;;;83.50;63.25;9.10;66.50;;;;;;4919906;29;8782;-73
2022/03/01 01:00:33;;;;;;;;;73.75;59.75;9.20;65.90;;;;;;4909907;29;8801;-74
2022/03/01 01:03:00;;;;;;;;;87.00;66.50;9.10;66.40;;;;;;4919901;29;8767;-75
2022/03/01 01:05:26;;;;;;;;;81.75;62.75;9.20;66.00;;;;;;4919822;29;8852;-75
2022/03/01 01:07:53;;;;;;;;;75.00;58.75;9.30;65.50;;;;;;4919399;29;9495;-75
2022/03/01 01:10:19;;;;;;;;;78.50;58.75;9.00;66.00;;;;;;4921100;29;8780;-75
2022/03/01 01:12:46;;;;;;;;;78.25;61.50;8.50;68.60;;;;;;4920832;29;8799;-75
2022/03/01 01:15:14;;;;;;;;;81.75;63.00;8.80;68.20;;;;;;4920836;29;8810;-75
2022/03/01 01:17:39;;;;;;;;;77.75;64.00;8.90;67.30;;;;;;4920854;29;8878;-75
2022/03/01 01:20:07;;;;;;;;;80.25;63.50;8.90;67.30;;;;;;4920884;29;8775;-76
2022/03/01 01:22:41;;;;;;;;;79.00;62.50;8.90;67.30;;;;;;4920978;29;9447;-75
2022/03/01 01:25:10;;;;;;;;;76.00;57.00;8.90;66.90;;;;;;4920951;29;9492;-74
2022/03/01 01:27:38;;;;;;;;;75.00;58.75;9.00;66.00;;;;;;4919755;29;8986;-76
2022/03/01 01:30:05;;;;;;;;;82.00;62.25;8.60;67.50;;;;;;4920508;29;8795;-74
2022/03/01 01:32:31;;;;;;;;;75.75;57.00;8.70;67.80;;;;;;4903905;29;8863;-75
2022/03/01 01:34:57;;;;;;;;;79.75;61.75;8.40;68.70;;;;;;4920384;29;8775;-75
2022/03/01 01:37:22;;;;;;;;;81.25;60.75;8.30;69.00;;;;;;4920426;29;8813;-75
2022/03/01 01:39:48;;;;;;;;;82.00;63.00;8.40;69.50;;;;;;4920341;29;8910;-75
2022/03/01 01:42:14;;;;;;;;;75.00;60.75;8.80;67.70;;;;;;4920620;29;8890;-76
2022/03/01 01:44:43;;;;;;;;;80.25;58.00;9.00;66.20;;;;;;4920213;29;9476;-74
2022/03/01 01:47:09;;;;;;;;;78.75;61.75;8.80;67.00;;;;;;4920406;29;8850;-75
2022/03/01 01:49:35;;;;;;;;;70.50;56.00;8.60;67.40;;;;;;4919220;29;8799;-76
2022/03/01 01:52:01;;;;;;;;;77.00;60.25;8.90;66.90;;;;;;4920307;29;8799;-76
2022/03/01 01:54:27;;;;;;;;;80.25;63.50;9.10;65.40;;;;;;4920031;29;8834;-77
2022/03/01 01:56:53;;;;;;;;;85.50;65.00;8.90;65.40;;;;;;4920247;29;8772;-76
2022/03/01 01:59:19;;;;;;;;;79.50;63.00;8.70;67.20;;;;;;4903345;29;8822;-76
2022/03/01 02:01:45;;;;;;;;;82.75;63.25;8.70;67.00;;;;;;4920266;29;8855;-75
2022/03/01 02:04:11;;;;;;;;;81.00;62.00;8.60;67.90;;;;;;4919869;29;8807;-75
2022/03/01 02:06:48;;;;;;;;;79.50;62.50;8.40;68.00;;;;;;4920108;29;9446;-76
2022/03/01 02:09:14;;;;;;;;;75.25;59.00;8.50;68.70;;;;;;4919665;29;8834;-76
2022/03/01 02:11:40;;;;;;;;;78.50;61.00;8.50;67.60;;;;;;4919784;29;8791;-74
2022/03/01 02:14:05;;;;;;;;;75.75;59.00;8.00;69.50;;;;;;4902891;29;8809;-74
2022/03/01 02:16:32;;;;;;;;;76.50;61.00;8.00;71.10;;;;;;4919649;29;8803;-76
2022/03/01 02:18:58;;;;;;;;;78.75;61.00;8.10;69.80;;;;;;4919650;29;8846;-76
2022/03/01 02:21:24;;;;;;;;;78.50;62.25;7.90;70.10;;;;;;4919566;29;8809;-74
2022/03/01 02:23:50;;;;;;;;;70.25;56.50;7.80;70.50;;;;;;4919679;29;8815;-76
2022/03/01 02:26:15;;;;;;;;;76.00;59.00;7.70;70.40;;;;;;4902717;29;8787;-75
2022/03/01 02:28:41;;;;;;;;;73.25;57.00;7.40;71.90;;;;;;4919680;29;8814;-76
2022/03/01 02:31:07;;;;;;;;;73.25;59.00;7.40;73.10;;;;;;4919674;29;9575;-75
2022/03/01 02:33:32;;;;;;;;;75.25;59.25;7.90;69.50;;;;;;4919549;29;8782;-75
2022/03/01 02:35:58;;;;;;;;;73.50;59.75;7.90;68.80;;;;;;4919256;29;8787;-74
2022/03/01 02:38:24;;;;;;;;;69.75;57.75;8.10;66.50;;;;;;4902528;29;8828;-76
2022/03/01 02:40:50;;;;;;;;;63.75;49.75;8.20;66.50;;;;;;4919195;29;8811;-75
2022/03/01 02:43:16;;;;;;;;;73.00;55.25;8.30;65.20;;;;;;4919243;29;8826;-76
2022/03/01 02:45:42;;;;;;;;;65.25;52.50;7.90;64.90;;;;;;4919424;29;8925;-75
2022/03/01 02:48:08;;;;;;;;;65.75;52.00;7.90;65.90;;;;;;4919443;29;8858;-76
2022/03/01 02:50:34;;;;;;;;;64.25;49.50;7.80;66.40;;;;;;4919130;29;8806;-76
2022/03/01 02:53:00;;;;;;;;;71.50;53.75;8.20;64.60;;;;;;4919349;29;8882;-73
2022/03/01 02:55:26;;;;;;;;;73.75;60.00;8.00;64.60;;;;;;4919318;29;8798;-75
2022/03/01 02:57:51;;;;;;;;;69.00;55.50;8.10;64.30;;;;;;4919136;29;9356;-76
2022/03/01 03:00:17;;;;;;;;;66.00;52.75;8.00;63.90;;;;;;4919156;29;9442;-75
2022/03/01 03:02:43;;;;;;;;;65.25;52.75;8.20;62.80;;;;;;4918982;29;8780;-76
2022/03/01 03:05:10;;;;;;;;;72.25;55.00;8.60;61.50;;;;;;4918997;29;8807;-77
2022/03/01 03:07:35;;;;;;;;;66.25;54.25;8.70;60.60;;;;;;4918815;29;8815;-76
2022/03/01 03:10:02;;;;;;;;;72.00;58.00;8.70;60.00;;;;;;4918725;29;8822;-76
2022/03/01 03:12:28;;;;;;;;;67.75;55.75;8.80;58.80;;;;;;4919038;29;8802;-77
2022/03/01 03:14:54;;;;;;;;;65.25;55.50;8.80;58.60;;;;;;4918717;29;8775;-76
2022/03/01 03:17:20;;;;;;;;;69.25;57.00;8.90;57.90;;;;;;4918910;29;8815;-77
2022/03/01 03:19:46;;;;;;;;;70.00;56.00;8.90;57.60;;;;;;4918821;29;8791;-76
2022/03/01 03:22:11;;;;;;;;;76.75;62.00;8.90;57.60;;;;;;4918682;29;9494;-76
2022/03/01 03:24:37;;;;;;;;;71.25;57.00;8.90;57.50;;;;;;4918529;29;9602;-77
2022/03/01 03:27:03;;;;;;;;;73.50;59.75;9.10;57.30;;;;;;4918530;29;8815;-77
2022/03/01 03:29:29;;;;;;;;;77.00;59.50;9.20;57.20;;;;;;4918443;29;8803;-76
2022/03/01 03:31:57;;;;;;;;;77.75;60.25;9.20;56.80;;;;;;4918423;29;8775;-77
2022/03/01 03:34:24;;;;;;;;;71.75;56.75;9.20;56.50;;;;;;4918351;29;8805;-75
2022/03/01 03:36:50;;;;;;;;;64.75;51.00;9.10;56.90;;;;;;4918654;29;8779;-76
2022/03/01 03:39:15;;;;;;;;;69.25;55.00;9.10;57.20;;;;;;4918682;29;8814;-76
2022/03/01 03:41:41;;;;;;;;;68.50;53.00;9.00;56.90;;;;;;4918300;29;8810;-76
2022/03/01 03:44:07;;;;;;;;;70.75;56.00;8.60;57.90;;;;;;4918188;29;8827;-75
2022/03/01 03:46:34;;;;;;;;;67.00;55.50;8.60;58.60;;;;;;4918333;29;8787;-77
2022/03/01 03:49:00;;;;;;;;;66.25;54.75;8.50;58.70;;;;;;4918147;29;8791;-76
2022/03/01 03:51:26;;;;;;;;;67.50;54.25;8.30;59.70;;;;;;4917787;29;8874;-77
2022/03/01 03:53:52;;;;;;;;;70.00;54.50;8.50;59.10;;;;;;4901422;29;8929;-74
2022/03/01 03:56:18;;;;;;;;;66.50;54.25;8.50;59.40;;;;;;4918045;29;8771;-76
2022/03/01 03:58:44;;;;;;;;;73.25;58.50;8.60;59.10;;;;;;4918079;29;8791;-75
2022/03/01 04:01:10;;;;;;;;;73.75;57.25;8.60;58.70;;;;;;4918004;29;8787;-76
2022/03/01 04:03:36;;;;;;;;;72.75;58.00;8.30;60.20;;;;;;4917892;29;8791;-76
2022/03/01 04:06:03;;;;;;;;;75.75;58.75;8.10;60.50;;;;;;4918242;29;8810;-76
2022/03/01 04:08:28;;;;;;;;;72.00;58.25;7.60;61.90;;;;;;4917920;29;8811;-75
2022/03/01 04:10:56;;;;;;;;;70.75;56.25;7.50;64.00;;;;;;4918041;29;8795;-74
2022/03/01 04:13:23;;;;;;;;;80.00;61.25;7.50;64.10;;;;;;4918218;29;8779;-75
2022/03/01 04:15:49;;;;;;;;;77.75;60.00;7.50;63.60;;;;;;4917985;29;8875;-75
2022/03/01 04:18:15;;;;;;;;;82.50;63.50;7.20;64.10;;;;;;4918146;29;8894;-76
2022/03/01 04:20:41;;;;;;;;;78.00;62.00;7.30;64.10;;;;;;4917931;29;8890;-77
2022/03/01 04:23:07;;;;;;;;;79.00;63.50;7.70;63.00;;;;;;4918173;29;8826;-75
2022/03/01 04:25:33;;;;;;;;;69.75;56.50;7.90;61.50;;;;;;4917752;29;8800;-76
2022/03/01 04:27:59;;;;;;;;;72.50;57.50;7.70;62.00;;;;;;4917863;29;8796;-75
2022/03/01 04:30:25;;;;;;;;;70.25;54.00;7.60;62.00;;;;;;4917761;29;8775;-75
2022/03/01 04:32:50;;;;;;;;;75.50;60.50;7.90;61.30;;;;;;4918086;29;9625;-78
2022/03/01 04:35:16;;;;;;;;;78.50;61.00;8.00;60.80;;;;;;4917894;29;9399;-75
2022/03/01 04:37:43;;;;;;;;;69.50;54.75;7.90;60.50;;;;;;4918045;29;8779;-77
2022/03/01 04:40:11;;;;;;;;;74.50;60.50;7.70;61.10;;;;;;4917642;29;9542;-75
2022/03/01 04:42:37;;;;;;;;;74.75;61.75;7.40;61.80;;;;;;4917745;29;8866;-75
2022/03/01 04:45:05;;;;;;;;;73.75;57.75;7.40;62.90;;;;;;4917647;29;8821;-74
2022/03/01 04:47:31;;;;;;;;;70.00;56.25;7.20;63.30;;;;;;4917905;29;8787;-74
2022/03/01 04:49:58;;;;;;;;;69.00;56.25;7.20;62.50;;;;;;4917551;29;8790;-73
2022/03/01 04:52:24;;;;;;;;;76.25;60.00;7.20;62.70;;;;;;4917896;29;8914;-75
2022/03/01 04:54:50;;;;;;;;;62.50;52.75;7.50;61.70;;;;;;4917674;29;8780;-74
2022/03/01 04:57:16;;;;;;;;;72.50;60.00;7.70;61.00;;;;;;4900801;29;8783;-73
2022/03/01 04:59:42;;;;;;;;;75.25;58.00;7.40;61.10;;;;;;4917602;29;8779;-74
2022/03/01 05:02:08;;;;;;;;;78.50;63.50;7.20;61.80;;;;;;4918899;29;8775;-73
2022/03/01 05:04:34;;;;;;;;;81.75;65.75;7.40;61.60;;;;;;4921111;29;8820;-76
2022/03/01 05:06:59;;;;;;;;;87.00;66.00;7.50;60.30;;;;;;4920601;29;8798;-75
2022/03/01 05:09:25;;;;;;;;;82.25;64.00;7.40;60.20;;;;;;4920931;29;8771;-75
2022/03/01 05:11:52;;;;;;;;;84.00;66.75;6.90;61.80;;;;;;4920937;29;8787;-75
2022/03/01 05:14:19;;;;;;;;;83.25;65.50;7.00;61.80;;;;;;4920826;29;8776;-75
2022/03/01 05:16:45;;;;;;;;;76.50;60.75;7.10;61.70;;;;;;4920846;29;8768;-75
2022/03/01 05:19:15;;;;;;;;;80.50;64.00;7.20;60.90;;;;;;4920881;29;8799;-75
2022/03/01 05:21:41;;;;;;;;;82.00;61.25;6.90;61.30;;;;;;4920069;29;8818;-76
2022/03/01 05:24:06;;;;;;;;;85.00;67.25;7.20;60.90;;;;;;4920928;29;8831;-75
2022/03/01 05:26:32;;;;;;;;;69.00;58.00;7.20;60.50;;;;;;4920976;29;8855;-77
2022/03/01 05:28:58;;;;;;;;;77.25;61.00;7.00;60.60;;;;;;4920556;29;8795;-76
2022/03/01 05:31:24;;;;;;;;;76.00;61.25;6.80;61.80;;;;;;4920559;29;8901;-75
2022/03/01 05:33:50;;;;;;;;;75.00;62.25;6.50;63.00;;;;;;4920425;29;8822;-75
2022/03/01 05:36:16;;;;;;;;;75.50;59.25;6.60;62.50;;;;;;4920596;29;8810;-75
2022/03/01 05:38:43;;;;;;;;;72.50;58.25;6.60;62.00;;;;;;4919495;29;8796;-74
2022/03/01 05:41:09;;;;;;;;;81.50;64.00;6.60;61.60;;;;;;4919146;29;8800;-75
2022/03/01 05:43:37;;;;;;;;;79.50;61.25;6.80;61.40;;;;;;4917223;29;8788;-75
2022/03/01 05:46:03;;;;;;;;;73.25;60.00;7.10;60.50;;;;;;4927552;29;8790;-73
2022/03/01 05:48:29;;;;;;;;;71.25;58.00;7.00;60.10;;;;;;4918594;29;8870;-74
2022/03/01 05:50:55;;;;;;;;;77.75;61.00;7.10;59.70;;;;;;4918911;29;8894;-77
2022/03/01 05:53:21;;;;;;;;;71.50;58.75;7.20;58.90;;;;;;4919903;29;8823;-76
2022/03/01 05:55:48;;;;;;;;;77.25;62.75;7.50;58.00;;;;;;4919988;29;8768;-76
2022/03/01 05:58:14;;;;;;;;;83.75;65.25;7.20;58.40;;;;;;4917045;29;8815;-74
2022/03/01 06:00:40;;;;;;;;;77.50;61.25;7.30;58.00;;;;;;4919741;29;8978;-72
2022/03/01 06:03:05;;;;;;;;;77.25;63.00;7.60;57.10;;;;;;4919703;29;8815;-73
2022/03/01 06:05:31;;;;;;;;;84.50;65.50;7.70;56.30;;;;;;4919329;29;8851;-76
2022/03/01 06:07:58;;;;;;;;;85.00;68.00;7.70;56.80;;;;;;4919528;29;8819;-73
2022/03/01 06:10:25;;;;;;;;;87.75;70.00;7.80;56.10;;;;;;4919759;29;8799;-72
2022/03/01 06:12:50;;;;;;;;;90.00;72.75;8.00;55.50;;;;;;4919440;29;9415;-73
2022/03/01 06:15:16;;;;;;;;;92.25;73.50;8.10;55.40;;;;;;4919604;29;8858;-73
2022/03/01 06:17:42;;;;;;;;;83.00;64.50;8.20;55.20;;;;;;4919599;29;8791;-73
2022/03/01 06:20:10;;;;;;;;;81.75;65.00;8.20;54.70;;;;;;4919759;29;8793;-73
2022/03/01 06:22:37;;;;;;;;;82.50;66.50;7.90;54.80;;;;;;4919655;29;8826;-73
2022/03/01 06:25:06;;;;;;;;;82.00;62.00;8.00;55.30;;;;;;4919312;29;8855;-72
2022/03/01 06:27:34;;;;;;;;;85.75;66.25;8.10;55.10;;;;;;4919368;29;8803;-71
2022/03/01 06:30:00;;;;;;;;;76.25;62.75;7.70;54.80;;;;;;4919116;29;8799;-73
2022/03/01 06:32:26;;;;;;;;;76.75;61.50;7.80;55.50;;;;;;4919644;29;8901;-73
2022/03/01 06:34:51;;;;;;;;;79.25;63.00;7.80;55.50;;;;;;4914608;29;8812;-72
2022/03/01 06:37:17;;;;;;;;;83.50;67.00;8.00;54.90;;;;;;4915859;29;8830;-73
2022/03/01 06:39:44;;;;;;;;;78.50;63.75;8.10;54.70;;;;;;4919411;29;8815;-74
2022/03/01 06:42:11;;;;;;;;;71.75;60.50;8.00;54.50;;;;;;4919641;29;8798;-74
2022/03/01 06:44:37;;;;;;;;;82.50;67.00;8.10;54.50;;;;;;4919359;29;9422;-73
2022/03/01 06:47:04;;;;;;;;;76.75;62.75;8.10;54.50;;;;;;4918979;29;8898;-74
2022/03/01 06:49:30;;;;;;;;;78.50;63.00;8.10;54.50;;;;;;4918659;29;8893;-73
2022/03/01 06:51:56;;;;;;;;;68.50;56.50;7.60;55.00;;;;;;4918879;29;8811;-73
2022/03/01 06:54:22;;;;;;;;;76.00;63.50;6.80;58.40;;;;;;4918928;29;8803;-74
2022/03/01 06:56:47;;;;;;;;;82.00;63.50;7.10;58.70;;;;;;4918915;29;8779;-73
2022/03/01 06:59:14;;;;;;;;;85.25;68.25;7.20;58.40;;;;;;4918859;29;8870;-73
2022/03/01 07:01:40;;;;;;;;;83.25;65.00;7.40;57.10;;;;;;4918879;29;8780;-74
2022/03/01 07:04:06;;;;;;;;;76.00;61.00;7.60;56.60;;;;;;4919043;29;9505;-73
2022/03/01 07:06:32;;;;;;;;;75.25;62.50;7.80;55.40;;;;;;4918741;29;8822;-73
2022/03/01 07:08:58;;;;;;;;;73.50;59.75;7.80;55.40;;;;;;4901719;29;8843;-74
2022/03/01 07:11:24;;;;;;;;;77.50;62.50;7.50;55.60;;;;;;4918701;29;8795;-74
2022/03/01 07:13:50;;;;;;;;;75.50;59.25;7.20;55.50;;;;;;4918610;29;8871;-73
2022/03/01 07:16:17;;;;;;;;;71.50;56.75;7.00;57.60;;;;;;4918653;29;8802;-73
2022/03/01 07:18:43;;;;;;;;;64.50;52.25;7.50;57.00;;;;;;4918604;29;8779;-73
2022/03/01 07:21:09;;;;;;;;;50.75;44.25;7.80;55.60;;;;;;4901744;29;8787;-74
2022/03/01 07:23:35;;;;;;;;;57.50;48.50;8.00;54.70;;;;;;4919067;29;9537;-73
2022/03/01 07:26:03;;;;;;;;;49.00;44.25;8.10;53.90;;;;;;4908922;29;8898;-74
2022/03/01 07:28:29;;;;;;;;;64.25;51.75;8.30;54.00;;;;;;4918460;29;8775;-74
2022/03/01 07:30:55;;;;;;;;;56.25;49.00;7.70;54.80;;;;;;4918266;29;8783;-73
2022/03/01 07:33:20;;;;;;;;;61.00;50.75;8.00;55.10;;;;;;4917559;29;8787;-73
2022/03/01 07:35:46;;;;;;;;;56.25;47.75;8.20;54.90;;;;;;4905995;29;8808;-72
2022/03/01 07:38:14;;;;;;;;;64.25;50.50;8.20;55.30;;;;;;4899217;29;8974;-72
2022/03/01 07:40:39;;;;;;;;;47.00;42.00;8.10;55.10;;;;;;4910667;29;8886;-73
2022/03/01 07:43:07;;;;;;;;;52.75;45.75;8.20;54.70;;;;;;4917891;29;9446;-72
2022/03/01 07:45:34;;;;;;;;;54.00;43.75;8.40;54.00;;;;;;4918363;29;9422;-72
2022/03/01 07:48:01;;;;;;;;;52.25;44.25;8.40;54.30;;;;;;4918191;29;8859;-73
2022/03/01 07:50:28;;;;;;;;;50.00;41.25;8.70;54.00;;;;;;4918458;29;9426;-72
2022/03/01 07:52:54;;;;;;;;;41.25;40.00;8.80;53.30;;;;;;4918493;29;8811;-74
2022/03/01 07:55:21;;;;;;;;;55.00;45.50;8.90;52.50;;;;;;4916790;29;8842;-73
2022/03/01 07:57:47;;;;;;;;;54.00;43.25;9.00;51.80;;;;;;4918314;29;8771;-72
2022/03/01 08:00:13;;;;;;;;;47.75;43.75;9.10;50.60;;;;;;4918413;29;8858;-72
2022/03/01 08:02:40;;;;;;;;;44.75;40.00;9.30;51.00;;;;;;4918291;29;8808;-72
2022/03/01 08:05:09;;;;;;;;;46.00;41.00;9.40;50.30;;;;;;4918124;29;8822;-72
2022/03/01 08:07:34;;;;;;;;;53.25;45.25;9.60;49.80;;;;;;4918023;29;9454;-74
2022/03/01 08:10:01;;;;;;;;;56.50;47.00;9.40;50.40;;;;;;4917942;29;8808;-74
2022/03/01 08:12:27;;;;;;;;;42.50;38.50;9.40;51.20;;;;;;4917992;29;8787;-73
2022/03/01 08:14:53;;;;;;;;;44.00;39.50;9.50;51.10;;;;;;4918135;29;9515;-73
2022/03/01 08:17:19;;;;;;;;;47.00;41.75;9.70;51.10;;;;;;4917997;29;8788;-73
2022/03/01 08:19:47;;;;;;;;;54.75;43.75;9.60;51.00;;;;;;4918052;29;8797;-73
2022/03/01 08:22:13;;;;;;;;;56.75;45.00;9.30;52.30;;;;;;4918048;29;8974;-73
2022/03/01 08:24:38;;;;;;;;;46.50;40.00;9.40;52.70;;;;;;4917895;29;9600;-73
2022/03/01 08:27:04;;;;;;;;;53.50;44.25;9.20;52.90;;;;;;4916705;29;8849;-73
2022/03/01 08:29:30;;;;;;;;;46.00;40.00;9.50;51.70;;;;;;4916624;29;8775;-73
2022/03/01 08:31:56;;;;;;;;;47.00;40.50;9.70;51.70;;;;;;4916759;29;8786;-73
2022/03/01 08:34:22;;;;;;;;;60.75;49.50;9.40;51.70;;;;;;4916519;29;8794;-74
2022/03/01 08:36:48;;;;;;;;;59.50;49.00;9.10;52.20;;;;;;4919221;29;8879;-74
2022/03/01 08:39:14;;;;;;;;;48.75;42.25;9.20;53.20;;;;;;4921348;29;8816;-73
2022/03/01 08:41:40;;;;;;;;;53.00;44.00;9.30;53.60;;;;;;4921036;29;8782;-74
2022/03/01 08:44:05;;;;;;;;;47.25;40.25;9.20;52.70;;;;;;4919926;29;8807;-73
2022/03/01 08:46:32;;;;;;;;;52.75;44.00;9.20;53.60;;;;;;4920083;29;8790;-72
2022/03/01 08:48:58;;;;;;;;;56.00;45.00;9.30;53.10;;;;;;4920373;29;8869;-70
2022/03/01 08:51:25;;;;;;;;;55.25;46.00;8.90;53.10;;;;;;4920165;29;8899;-71
2022/03/01 08:53:52;;;;;;;;;61.75;51.75;9.10;54.40;;;;;;4920299;29;8801;-68
2022/03/01 08:56:19;;;;;;;;;52.50;46.00;9.10;53.60;;;;;;4919715;29;8773;-67
2022/03/01 08:58:46;;;;;;;;;58.50;47.75;9.40;53.10;;;;;;4919906;29;8767;-69
2022/03/01 09:01:12;;;;;;;;;59.25;48.25;9.20;53.10;;;;;;4921197;29;8960;-68
2022/03/01 09:03:38;;;;;;;;;60.50;49.00;9.20;53.70;;;;;;4920953;29;8783;-70
2022/03/01 09:06:05;;;;;;;;;59.50;49.50;9.20;53.70;;;;;;4921347;29;8788;-70
2022/03/01 09:08:37;;;;;;;;;64.00;53.00;9.50;52.60;;;;;;4921003;29;8827;-69
2022/03/01 09:11:03;;;;;;;;;69.00;53.50;9.70;52.10;;;;;;4921192;29;8779;-68
2022/03/01 09:13:29;;;;;;;;;64.50;52.50;9.70;52.40;;;;;;4920860;29;8806;-63
2022/03/01 09:15:55;;;;;;;;;64.50;53.25;9.60;51.10;;;;;;4921139;29;8780;-65
2022/03/01 09:18:23;;;;;;;;;57.50;48.25;9.60;52.00;;;;;;4920730;29;8783;-73
2022/03/01 09:20:50;;;;;;;;;70.25;57.00;9.50;51.10;;;;;;4920782;29;8822;-70
2022/03/01 09:23:16;;;;;;;;;60.25;49.75;9.30;51.70;;;;;;4921006;29;8826;-70
2022/03/01 09:25:41;;;;;;;;;58.00;48.50;9.70;51.00;;;;;;4920934;29;8830;-73
2022/03/01 09:28:08;;;;;;;;;56.50;46.50;9.80;49.60;;;;;;4920487;29;8898;-72
2022/03/01 09:30:34;;;;;;;;;58.50;48.25;9.30;50.20;;;;;;4920643;29;8865;-73
2022/03/01 09:33:00;;;;;;;;;60.00;49.75;9.10;51.70;;;;;;4920678;29;9472;-72
2022/03/01 09:35:26;;;;;;;;;63.25;50.50;9.20;52.20;;;;;;4920418;29;8799;-72
2022/03/01 09:37:52;;;;;;;;;74.00;58.75;8.80;53.10;;;;;;4920314;29;8821;-73
2022/03/01 09:40:18;;;;;;;;;68.75;57.25;8.20;53.90;;;;;;4920380;29;8780;-72
2022/03/01 09:42:44;;;;;;;;;67.25;54.75;8.40;54.60;;;;;;4920649;29;8779;-73
2022/03/01 09:45:11;;;;;;;;;68.50;55.00;8.60;54.10;;;;;;4920290;29;8815;-69
2022/03/01 09:47:38;;;;;;;;;62.00;50.00;8.90;54.40;;;;;;4919247;29;8794;-67
2022/03/01 09:50:06;;;;;;;;;70.25;57.25;8.50;53.40;;;;;;4920283;29;8801;-68
2022/03/01 09:52:32;;;;;;;;;63.75;52.25;8.70;54.00;;;;;;4920363;29;8811;-66
2022/03/01 09:54:58;;;;;;;;;63.00;50.50;9.00;52.50;;;;;;4920402;29;8772;-68
2022/03/01 09:57:24;;;;;;;;;61.00;50.25;9.70;51.70;;;;;;4920063;29;8776;-69
2022/03/01 09:59:50;;;;;;;;;61.00;49.50;9.80;49.60;;;;;;4920035;29;8810;-71
2022/03/01 10:02:16;;;;;;;;;52.00;43.00;10.50;48.30;;;;;;4919913;29;8804;-71
2022/03/01 10:05:01;;;;;;;;;59.75;49.75;10.60;47.40;;;;;;4919946;29;8866;-74
2022/03/01 10:07:29;;;;;;;;;65.25;53.50;10.90;46.80;;;;;;4919184;29;8787;-73
2022/03/01 10:10:06;;;;;;;;;48.25;42.00;10.60;46.90;;;;;;4934824;29;8791;-70
2022/03/01 10:12:32;;;;;;;;;62.00;51.00;10.60;47.30;;;;;;4919917;29;8819;-70
2022/03/01 10:15:03;;;;;;;;;53.00;45.50;10.50;46.90;;;;;;4919026;29;8796;-68
2022/03/01 10:17:40;;;;;;;;;61.50;50.50;10.50;48.40;;;;;;4916955;29;8822;-71
2022/03/01 10:20:18;;;;;;;;;64.50;51.00;10.50;48.00;;;;;;4919840;29;8755;-70
2022/03/01 10:22:49;;;;;;;;;60.75;50.50;9.80;50.10;;;;;;4919835;29;8807;-71
2022/03/01 10:25:17;;;;;;;;;70.50;53.25;9.80;50.90;;;;;;4919696;29;8819;-71
2022/03/01 10:27:44;;;;;;;;;62.50;51.75;10.30;50.20;;;;;;4919601;29;8806;-71
2022/03/01 10:30:11;;;;;;;;;70.00;55.25;9.80;50.10;;;;;;4919832;29;8779;-72
2022/03/01 10:32:37;;;;;;;;;71.75;58.25;9.40;53.50;;;;;;4919543;29;8820;-74
2022/03/01 10:35:08;;;;;;;;;70.75;56.50;9.30;53.60;;;;;;4919525;29;8787;-73
2022/03/01 10:37:36;;;;;;;;;64.25;52.00;9.20;54.50;;;;;;4918396;29;8922;-69
2022/03/01 10:40:32;;;;;;;;;69.75;55.25;9.50;53.60;;;;;;4919310;29;8807;-67
2022/03/01 10:43:03;;;;;;;;;74.25;58.00;9.60;53.50;;;;;;4879430;29;8787;-70
2022/03/01 10:45:34;;;;;;;;;77.75;58.75;9.60;52.90;;;;;;4879474;29;8846;-70
2022/03/01 10:48:00;;;;;;;;;80.50;60.50;9.10;55.00;;;;;;4879532;29;9545;-71
2022/03/01 10:50:26;;;;;;;;;81.75;64.00;9.30;54.60;;;;;;4879560;29;8802;-72
2022/03/01 10:52:52;;;;;;;;;71.00;54.25;9.30;55.00;;;;;;4879281;29;8850;-71
2022/03/01 10:55:38;;;;;;;;;74.50;57.00;9.50;54.40;;;;;;4879440;29;8835;-68
2022/03/01 10:58:04;;;;;;;;;74.50;59.75;9.70;53.40;;;;;;4879373;29;8790;-71
2022/03/01 11:00:31;;;;;;;;;72.00;58.00;9.70;53.20;;;;;;4878505;29;9541;-73
2022/03/01 11:02:57;;;;;;;;;76.00;60.00;9.00;54.30;;;;;;4879295;29;8787;-68
2022/03/01 11:05:23;;;;;;;;;73.25;58.00;8.70;57.00;;;;;;4878994;29;8978;-74
2022/03/01 11:07:51;;;;;;;;;81.25;62.25;9.30;55.10;;;;;;4873830;29;8846;-71
2022/03/01 11:10:19;;;;;;;;;77.00;60.75;9.80;54.80;;;;;;4869271;29;9462;-73
2022/03/01 11:12:47;;;;;;;;;78.25;60.25;9.10;56.60;;;;;;4867794;29;8818;-69
2022/03/01 11:15:24;;;;;;;;;82.50;62.00;9.60;54.30;;;;;;4867912;29;8863;-71
2022/03/01 11:18:01;;;;;;;;;76.50;60.00;10.00;53.30;;;;;;4872026;29;8782;-70
2022/03/01 11:20:35;;;;;;;;;76.50;61.25;10.20;52.40;;;;;;4915314;29;8785;-71
2022/03/01 11:23:07;;;;;;;;;63.50;54.00;10.30;51.80;;;;;;4918782;29;8833;-68
2022/03/01 11:25:38;;;;;;;;;67.25;55.25;10.30;51.50;;;;;;4918535;29;8837;-67
2022/03/01 11:28:09;;;;;;;;;68.50;53.25;10.50;50.70;;;;;;4918409;29;8902;-67
2022/03/01 11:30:40;;;;;;;;;66.25;53.00;10.40;50.60;;;;;;4918455;29;8804;-69
2022/03/01 11:33:06;;;;;;;;;69.25;54.25;10.10;51.80;;;;;;4918358;29;8793;-69
2022/03/01 11:35:36;;;;;;;;;69.00;55.00;10.30;51.90;;;;;;4917570;29;9775;-67
2022/03/01 11:38:14;;;;;;;;;62.00;51.50;10.20;51.30;;;;;;4917630;29;8801;-66
2022/03/01 11:40:50;;;;;;;;;66.25;53.75;10.10;51.20;;;;;;4915940;29;8764;-66
2022/03/01 11:43:20;;;;;;;;;70.75;54.25;10.40;51.30;;;;;;4915648;29;9619;-66
2022/03/01 11:45:52;;;;;;;;;71.25;54.75;10.50;51.10;;;;;;4916779;29;8797;-68
2022/03/01 11:48:29;;;;;;;;;77.50;60.00;10.60;51.80;;;;;;4916293;29;8784;-68
2022/03/01 11:51:06;;;;;;;;;90.75;68.00;10.70;50.80;;;;;;4895742;29;8871;-65
2022/03/01 11:53:42;;;;;;;;;61.00;50.75;10.80;51.10;;;;;;4913589;29;9523;-71
2022/03/01 11:56:09;;;;;;;;;97.25;80.00;10.20;51.70;;;;;;4917586;29;8807;-70
2022/03/01 11:58:37;;;;;;;;;91.75;74.25;10.20;52.60;;;;;;4917027;29;8811;-65
2022/03/01 12:01:09;;;;;;;;;89.50;71.00;9.80;52.50;;;;;;4917537;29;8805;-67
2022/03/01 12:03:37;;;;;;;;;87.00;66.75;9.60;54.70;;;;;;4914541;29;8816;-65
2022/03/01 12:06:05;;;;;;;;;86.75;68.00;9.70;54.30;;;;;;4914626;29;8906;-67
2022/03/01 12:08:31;;;;;;;;;89.50;69.50;9.60;55.30;;;;;;4910095;29;8831;-65
2022/03/01 12:11:04;;;;;;;;;76.25;57.50;9.90;54.90;;;;;;4914151;29;8819;-66
2022/03/01 12:13:40;;;;;;;;;95.00;76.50;9.80;54.40;;;;;;4918647;29;8783;-66
2022/03/01 12:16:07;;;;;;;;;91.25;69.25;10.20;53.60;;;;;;4920692;29;9448;-65
2022/03/01 12:18:35;;;;;;;;;89.25;67.75;10.20;53.40;;;;;;4920896;29;8914;-63
2022/03/01 12:21:04;;;;;;;;;85.50;66.50;10.40;52.70;;;;;;4921908;29;8838;-67
2022/03/01 12:23:32;;;;;;;;;76.25;58.25;10.50;52.70;;;;;;4921619;29;9637;-66
2022/03/01 12:26:06;;;;;;;;;74.50;57.75;9.50;52.90;;;;;;4921857;29;8815;-65
2022/03/01 12:28:56;;;;;;;;;77.00;59.00;8.30;58.50;;;;;;4921531;29;8842;-63
2022/03/01 12:31:26;;;;;;;;;83.00;65.25;7.80;60.80;;;;;;4921508;29;8815;-66
2022/03/01 12:34:01;;;;;;;;;61.75;52.25;7.50;63.80;;;;;;4920011;29;9464;-66
2022/03/01 12:36:41;;;;;;;;;70.25;55.50;7.10;65.30;;;;;;4907992;29;8816;-64
2022/03/01 12:39:13;;;;;;;;;65.75;52.75;7.00;65.70;;;;;;4920316;29;8818;-65
2022/03/01 12:41:40;;;;;;;;;76.00;58.00;7.90;63.70;;;;;;4920446;29;9661;-67
2022/03/01 12:44:09;;;;;;;;;73.75;57.75;8.10;62.70;;;;;;4919847;29;9490;-65
2022/03/01 12:46:35;;;;;;;;;72.50;55.75;9.30;61.50;;;;;;4919860;29;8769;-64